北海道・東北TAF電文


新千歳(RJCC)
7/21 4h
TAF AMD RJCC 201937Z 2019/2200 16010KT 0500 FG VV001
BECMG 2022/2100 9999 NSW FEW008 BKN015
TEMPO 2106/2112 FEW005 BKN008
TEMPO 2112/2121 15020G30KT 3000 -SHRA BR FEW003 BKN005
BECMG 2121/2200 26006KT=

旭川(RJEC)
7/21 2h
TAF RJEC 201705Z 2018/2200 17005KT 9999 FEW020 BECMG 2109/2112
17016KT TEMPO 2118/2200 4000 -SHRA BR=

帯広(RJCB)
7/21 2h
TAF RJCB 201705Z 2018/2200 30004KT 9999 FEW003 BKN015 TEMPO
2018/2021 1500 BR FEW001 BKN003 BECMG 2100/2102 16005KT
TEMPO 2115/2121 1500 BR FEW001 BKN003 BECMG 2121/2200
28004KT=

釧路(RJCK)
7/21 2h
TAF RJCK 201705Z 2018/2200 02003KT 0300 FG VV001 BECMG 2022/2100
19010KT 0700 FG BECMG 2100/2102 9999 NSW FEW008 SCT015
TEMPO 2106/2109 2000 BR FEW001 BKN004 BECMG 2109/2112 0500
FG VV001=

女満別(RJCM)
7/21 2h
TAF RJCM 201705Z 2018/2200 17005KT 9999 FEW015 BECMG 2101/2103
06005KT BECMG 2106/2109 18007KT=

函館(RJCH)
7/21 2h
TAF RJCH 201705Z 2018/2200 21008KT 9999 FEW015 BKN030 BECMG
2106/2109 17007KT TEMPO 2106/2112 4000 -SHRA BR FEW003
BKN006 BECMG 2112/2115 24012KT TEMPO 2112/2118 3000 SHRA BR
FEW002 BKN004 TEMPO 2118/2121 4000 -SHRA BR FEW003 BKN006=

青森(RJSA)
7/21 2h
TAF RJSA 201717Z 2018/2200 21010KT 9999 FEW020=

秋田(RJSK)
7/21 2h
TAF RJSK 201717Z 2018/2200 14004KT 9999 FEW010 BKN020 TEMPO
2018/2022 3000 BR FEW005 BKN008 BECMG 2022/2100 24010KT=

花巻(RJSI)
7/21 2h
TAF RJSI 201717Z 2018/2200 02004KT 3000 BR FEW003 BKN008 TEMPO
2018/2022 0700 FG FEW001 BKN002 BECMG 2022/2100 9999 NSW
FEW030 BECMG 2100/2102 24006KT=

仙台(RJSS)
7/21 2h
TAF RJSS 201706Z 2018/2200 36004KT 9999 FEW030 BECMG 2023/2101
14010KT BECMG 2109/2112 22006KT=

福島(RJSF)
7/21 2h
TAF RJSF 201706Z 2018/2200 34010KT 9999 FEW015 SCT030 TEMPO
2105/2109 TS FEW015 BKN030 FEW030CB BECMG 2109/2112 14004KT
BECMG 2121/2200 34010KT=
Copyright(c) 2014 International Meteorological & Oceanographic Consultants Co,.Ltd. All Rights Reserved. Design by http://f-tpl.com